sensor_id;sensor_type;location;lat;lon;timestamp;pressure;altitude;pressure_sealevel;temperature;humidity
79138;BME280;68544;45.566;10.238;2023-04-25T00:00:33;98960.81;;;16.48;45.38
79138;BME280;68544;45.566;10.238;2023-04-25T00:02:59;98967.28;;;16.42;45.12
79138;BME280;68544;45.566;10.238;2023-04-25T00:05:26;98959.16;;;16.47;45.09
79138;BME280;68544;45.566;10.238;2023-04-25T00:07:51;98957.38;;;16.52;45.26
79138;BME280;68544;45.566;10.238;2023-04-25T00:10:17;98962.00;;;16.52;45.00
79138;BME280;68544;45.566;10.238;2023-04-25T00:12:43;98931.44;;;16.33;45.39
79138;BME280;68544;45.566;10.238;2023-04-25T00:15:08;98956.13;;;16.43;45.10
79138;BME280;68544;45.566;10.238;2023-04-25T00:17:34;98956.69;;;16.45;45.21
79138;BME280;68544;45.566;10.238;2023-04-25T00:20:00;98948.09;;;16.37;45.53
79138;BME280;68544;45.566;10.238;2023-04-25T00:22:29;98956.69;;;16.45;45.13
79138;BME280;68544;45.566;10.238;2023-04-25T00:24:54;98953.13;;;16.45;45.17
79138;BME280;68544;45.566;10.238;2023-04-25T00:27:22;98949.25;;;16.41;45.17
79138;BME280;68544;45.566;10.238;2023-04-25T00:29:47;98946.09;;;16.49;45.17
79138;BME280;68544;45.566;10.238;2023-04-25T00:32:12;98932.91;;;16.41;45.39
79138;BME280;68544;45.566;10.238;2023-04-25T00:34:38;98926.44;;;16.47;45.76
79138;BME280;68544;45.566;10.238;2023-04-25T00:37:03;98924.91;;;16.51;46.74
79138;BME280;68544;45.566;10.238;2023-04-25T00:39:28;98928.94;;;16.48;46.85
79138;BME280;68544;45.566;10.238;2023-04-25T00:41:54;98920.53;;;16.50;47.43
79138;BME280;68544;45.566;10.238;2023-04-25T00:44:20;98921.38;;;16.50;47.81
79138;BME280;68544;45.566;10.238;2023-04-25T00:46:47;98918.13;;;16.53;47.93
79138;BME280;68544;45.566;10.238;2023-04-25T00:49:14;98920.06;;;16.53;48.28
79138;BME280;68544;45.566;10.238;2023-04-25T00:51:42;98925.28;;;16.59;47.73
79138;BME280;68544;45.566;10.238;2023-04-25T00:54:09;98920.06;;;16.53;48.53
79138;BME280;68544;45.566;10.238;2023-04-25T00:56:34;98924.50;;;16.59;48.09
79138;BME280;68544;45.566;10.238;2023-04-25T00:59:00;98909.66;;;16.50;47.73
79138;BME280;68544;45.566;10.238;2023-04-25T01:01:25;98926.78;;;16.67;47.77
79138;BME280;68544;45.566;10.238;2023-04-25T01:03:52;98897.72;;;16.56;47.77
79138;BME280;68544;45.566;10.238;2023-04-25T01:06:18;98919.75;;;16.71;47.47
79138;BME280;68544;45.566;10.238;2023-04-25T01:08:44;98926.91;;;16.77;46.78
79138;BME280;68544;45.566;10.238;2023-04-25T01:11:09;98923.03;;;16.73;47.05
79138;BME280;68544;45.566;10.238;2023-04-25T01:13:34;98919.81;;;16.76;47.21
79138;BME280;68544;45.566;10.238;2023-04-25T01:16:00;98922.66;;;16.65;47.55
79138;BME280;68544;45.566;10.238;2023-04-25T01:18:26;98917.13;;;16.81;47.56
79138;BME280;68544;45.566;10.238;2023-04-25T01:20:52;98918.28;;;16.85;47.18
79138;BME280;68544;45.566;10.238;2023-04-25T01:23:22;98920.59;;;16.17;49.45
79138;BME280;68544;45.566;10.238;2023-04-25T01:25:48;98929.16;;;15.75;52.43
79138;BME280;68544;45.566;10.238;2023-04-25T01:28:14;98928.94;;;15.60;54.37
79138;BME280;68544;45.566;10.238;2023-04-25T01:30:40;98929.22;;;15.47;54.85
79138;BME280;68544;45.566;10.238;2023-04-25T01:33:07;98941.63;;;15.71;54.85
79138;BME280;68544;45.566;10.238;2023-04-25T01:35:33;98951.59;;;15.66;54.96
79138;BME280;68544;45.566;10.238;2023-04-25T01:37:58;98948.94;;;15.54;55.61
79138;BME280;68544;45.566;10.238;2023-04-25T01:40:24;98933.97;;;15.68;55.44
79138;BME280;68544;45.566;10.238;2023-04-25T01:42:50;98946.25;;;15.88;55.01
79138;BME280;68544;45.566;10.238;2023-04-25T01:45:16;98937.75;;;15.84;54.98
79138;BME280;68544;45.566;10.238;2023-04-25T01:47:42;98941.88;;;15.87;54.47
79138;BME280;68544;45.566;10.238;2023-04-25T01:50:08;98935.03;;;15.84;54.62
79138;BME280;68544;45.566;10.238;2023-04-25T01:52:34;98937.91;;;15.77;54.16
79138;BME280;68544;45.566;10.238;2023-04-25T01:55:02;98939.56;;;15.62;54.69
79138;BME280;68544;45.566;10.238;2023-04-25T01:57:27;98939.56;;;15.62;54.57
79138;BME280;68544;45.566;10.238;2023-04-25T02:00:00;98934.97;;;15.79;53.82
79138;BME280;68544;45.566;10.238;2023-04-25T02:02:26;98929.84;;;15.82;53.42
79138;BME280;68544;45.566;10.238;2023-04-25T02:04:51;98916.91;;;15.90;53.06
79138;BME280;68544;45.566;10.238;2023-04-25T02:07:17;98924.72;;;15.86;52.89
79138;BME280;68544;45.566;10.238;2023-04-25T02:09:42;98936.28;;;15.76;53.46
79138;BME280;68544;45.566;10.238;2023-04-25T02:12:09;98929.50;;;15.96;52.16
79138;BME280;68544;45.566;10.238;2023-04-25T02:14:35;98932.97;;;16.08;51.75
79138;BME280;68544;45.566;10.238;2023-04-25T02:17:00;98922.75;;;15.98;51.06
79138;BME280;68544;45.566;10.238;2023-04-25T02:19:25;98921.09;;;15.97;51.37
79138;BME280;68544;45.566;10.238;2023-04-25T02:21:51;98921.56;;;15.77;51.55
79138;BME280;68544;45.566;10.238;2023-04-25T02:24:16;98919.78;;;15.83;51.14
79138;BME280;68544;45.566;10.238;2023-04-25T02:26:41;98925.38;;;15.76;50.89
79138;BME280;68544;45.566;10.238;2023-04-25T02:29:07;98916.81;;;15.85;50.96
79138;BME280;68544;45.566;10.238;2023-04-25T02:31:32;98910.94;;;15.93;50.09
79138;BME280;68544;45.566;10.238;2023-04-25T02:33:57;98910.53;;;15.84;50.06
79138;BME280;68544;45.566;10.238;2023-04-25T02:36:23;98901.75;;;15.99;49.28
79138;BME280;68544;45.566;10.238;2023-04-25T02:38:49;98895.53;;;15.98;49.33
79138;BME280;68544;45.566;10.238;2023-04-25T02:41:15;98887.81;;;16.12;48.73
79138;BME280;68544;45.566;10.238;2023-04-25T02:43:40;98871.66;;;16.05;49.10
79138;BME280;68544;45.566;10.238;2023-04-25T02:46:07;98883.19;;;16.12;49.14
79138;BME280;68544;45.566;10.238;2023-04-25T02:48:32;98875.84;;;16.13;49.19
79138;BME280;68544;45.566;10.238;2023-04-25T02:50:58;98887.75;;;16.07;49.31
79138;BME280;68544;45.566;10.238;2023-04-25T02:53:23;98899.53;;;16.12;49.49
79138;BME280;68544;45.566;10.238;2023-04-25T02:55:48;98894.97;;;16.18;49.84
79138;BME280;68544;45.566;10.238;2023-04-25T02:58:14;98894.75;;;16.03;49.86
79138;BME280;68544;45.566;10.238;2023-04-25T03:00:40;98892.69;;;16.10;50.02
79138;BME280;68544;45.566;10.238;2023-04-25T03:03:06;98896.47;;;16.25;49.83
79138;BME280;68544;45.566;10.238;2023-04-25T03:05:31;98898.84;;;16.22;50.48
79138;BME280;68544;45.566;10.238;2023-04-25T03:07:56;98857.72;;;16.02;50.96
79138;BME280;68544;45.566;10.238;2023-04-25T03:10:22;98890.84;;;16.32;50.13
79138;BME280;68544;45.566;10.238;2023-04-25T03:12:47;98887.34;;;16.36;50.65
79138;BME280;68544;45.566;10.238;2023-04-25T03:15:12;98891.25;;;16.40;50.70
79138;BME280;68544;45.566;10.238;2023-04-25T03:17:37;98910.94;;;16.47;50.99
79138;BME280;68544;45.566;10.238;2023-04-25T03:20:03;98911.13;;;16.41;52.89
79138;BME280;68544;45.566;10.238;2023-04-25T03:22:29;98917.25;;;16.31;54.05
79138;BME280;68544;45.566;10.238;2023-04-25T03:24:54;98916.44;;;16.31;54.34
79138;BME280;68544;45.566;10.238;2023-04-25T03:27:19;98919.72;;;16.33;54.56
79138;BME280;68544;45.566;10.238;2023-04-25T03:29:45;98918.44;;;16.19;55.51
79138;BME280;68544;45.566;10.238;2023-04-25T03:32:10;98927.50;;;16.08;56.91
79138;BME280;68544;45.566;10.238;2023-04-25T03:34:35;98928.09;;;16.10;58.61
79138;BME280;68544;45.566;10.238;2023-04-25T03:37:01;98923.22;;;15.78;61.04
79138;BME280;68544;45.566;10.238;2023-04-25T03:39:26;98931.13;;;15.47;64.72
79138;BME280;68544;45.566;10.238;2023-04-25T03:41:51;98936.69;;;15.40;64.58
79138;BME280;68544;45.566;10.238;2023-04-25T03:44:17;98941.03;;;15.25;66.18
79138;BME280;68544;45.566;10.238;2023-04-25T03:46:42;98941.59;;;15.27;65.91
79138;BME280;68544;45.566;10.238;2023-04-25T03:49:08;98949.97;;;15.25;66.26
79138;BME280;68544;45.566;10.238;2023-04-25T03:51:33;98968.97;;;15.09;66.51
79138;BME280;68544;45.566;10.238;2023-04-25T03:53:58;98980.41;;;15.22;nan
79138;BME280;68544;45.566;10.238;2023-04-25T03:56:24;98982.31;;;15.10;67.81
79138;BME280;68544;45.566;10.238;2023-04-25T03:58:49;98987.63;;;15.17;67.46
79138;BME280;68544;45.566;10.238;2023-04-25T04:01:14;98998.34;;;15.35;67.03
79138;BME280;68544;45.566;10.238;2023-04-25T04:03:40;99009.03;;;15.13;67.88
79138;BME280;68544;45.566;10.238;2023-04-25T04:06:06;99006.50;;;15.23;68.36
79138;BME280;68544;45.566;10.238;2023-04-25T04:08:32;99000.88;;;15.13;67.81
79138;BME280;68544;45.566;10.238;2023-04-25T04:10:58;99007.00;;;15.20;67.86
79138;BME280;68544;45.566;10.238;2023-04-25T04:13:26;99002.63;;;15.19;67.34
79138;BME280;68544;45.566;10.238;2023-04-25T04:15:51;99001.13;;;15.12;68.05
79138;BME280;68544;45.566;10.238;2023-04-25T04:18:17;98996.53;;;15.12;67.85
79138;BME280;68544;45.566;10.238;2023-04-25T04:20:42;98988.84;;;15.09;67.81
79138;BME280;68544;45.566;10.238;2023-04-25T04:23:07;98998.88;;;15.09;68.27
79138;BME280;68544;45.566;10.238;2023-04-25T04:25:33;99000.53;;;15.10;69.53
79138;BME280;68544;45.566;10.238;2023-04-25T04:27:59;99010.69;;;15.14;69.74
79138;BME280;68544;45.566;10.238;2023-04-25T04:30:26;99011.28;;;15.16;70.78
79138;BME280;68544;45.566;10.238;2023-04-25T04:32:55;99024.59;;;15.29;69.85
79138;BME280;68544;45.566;10.238;2023-04-25T04:35:20;99030.38;;;14.93;66.74
79138;BME280;68544;45.566;10.238;2023-04-25T04:37:46;99012.16;;;14.93;66.10
79138;BME280;68544;45.566;10.238;2023-04-25T04:40:11;98998.41;;;14.49;64.46
79138;BME280;68544;45.566;10.238;2023-04-25T04:42:36;98967.22;;;14.40;65.11
79138;BME280;68544;45.566;10.238;2023-04-25T04:45:02;98981.25;;;14.37;64.88
79138;BME280;68544;45.566;10.238;2023-04-25T04:47:28;99007.72;;;13.88;63.62
79138;BME280;68544;45.566;10.238;2023-04-25T04:49:56;99010.84;;;14.03;63.22
79138;BME280;68544;45.566;10.238;2023-04-25T04:52:21;99016.34;;;13.85;61.79
79138;BME280;68544;45.566;10.238;2023-04-25T04:54:46;99036.78;;;13.99;61.66
79138;BME280;68544;45.566;10.238;2023-04-25T04:57:12;99016.66;;;14.18;60.10
79138;BME280;68544;45.566;10.238;2023-04-25T04:59:37;99014.88;;;14.12;59.92
79138;BME280;68544;45.566;10.238;2023-04-25T05:02:03;99012.03;;;14.07;62.03
79138;BME280;68544;45.566;10.238;2023-04-25T05:04:28;99008.84;;;14.10;60.43
79138;BME280;68544;45.566;10.238;2023-04-25T05:06:53;98993.28;;;14.17;60.11
79138;BME280;68544;45.566;10.238;2023-04-25T05:09:19;98994.47;;;14.21;58.74
79138;BME280;68544;45.566;10.238;2023-04-25T05:11:44;98991.91;;;14.38;61.64
79138;BME280;68544;45.566;10.238;2023-04-25T05:14:09;98990.13;;;14.32;63.23
79138;BME280;68544;45.566;10.238;2023-04-25T05:16:35;98991.44;;;14.30;61.96
79138;BME280;68544;45.566;10.238;2023-04-25T05:19:00;98999.75;;;14.16;62.59
79138;BME280;68544;45.566;10.238;2023-04-25T05:21:26;98986.19;;;14.16;62.45
79138;BME280;68544;45.566;10.238;2023-04-25T05:23:52;99000.63;;;13.76;68.39
79138;BME280;68544;45.566;10.238;2023-04-25T05:26:17;98982.91;;;13.62;71.78
79138;BME280;68544;45.566;10.238;2023-04-25T05:28:42;98973.16;;;13.31;67.68
79138;BME280;68544;45.566;10.238;2023-04-25T05:31:11;98960.13;;;13.21;67.87
79138;BME280;68544;45.566;10.238;2023-04-25T05:33:36;98953.50;;;13.17;66.75
79138;BME280;68544;45.566;10.238;2023-04-25T05:36:02;98937.00;;;13.19;65.73
79138;BME280;68544;45.566;10.238;2023-04-25T05:38:27;98946.84;;;13.31;65.34
79138;BME280;68544;45.566;10.238;2023-04-25T05:40:52;98946.63;;;13.33;65.21
79138;BME280;68544;45.566;10.238;2023-04-25T05:43:18;98950.97;;;13.34;65.24
79138;BME280;68544;45.566;10.238;2023-04-25T05:45:43;98939.69;;;13.37;65.00
79138;BME280;68544;45.566;10.238;2023-04-25T05:48:08;98943.00;;;13.39;63.46
79138;BME280;68544;45.566;10.238;2023-04-25T05:50:34;98942.91;;;13.45;64.03
79138;BME280;68544;45.566;10.238;2023-04-25T05:52:59;98937.38;;;13.52;63.84
79138;BME280;68544;45.566;10.238;2023-04-25T05:55:24;98933.72;;;13.70;62.66
79138;BME280;68544;45.566;10.238;2023-04-25T05:57:50;98942.25;;;13.85;64.12
79138;BME280;68544;45.566;10.238;2023-04-25T06:00:15;98947.13;;;13.94;63.44
79138;BME280;68544;45.566;10.238;2023-04-25T06:02:41;98951.84;;;14.10;64.19
79138;BME280;68544;45.566;10.238;2023-04-25T06:05:08;98939.81;;;14.06;65.74
79138;BME280;68544;45.566;10.238;2023-04-25T06:07:33;98928.72;;;14.19;62.23
79138;BME280;68544;45.566;10.238;2023-04-25T06:09:59;98938.16;;;14.52;59.88
79138;BME280;68544;45.566;10.238;2023-04-25T06:12:25;98936.22;;;14.64;61.08
79138;BME280;68544;45.566;10.238;2023-04-25T06:14:51;98931.28;;;14.61;61.89
79138;BME280;68544;45.566;10.238;2023-04-25T06:17:16;98931.78;;;14.35;62.67
79138;BME280;68544;45.566;10.238;2023-04-25T06:19:41;98935.28;;;14.70;61.80
79138;BME280;68544;45.566;10.238;2023-04-25T06:22:07;98932.88;;;14.85;61.20
79138;BME280;68544;45.566;10.238;2023-04-25T06:24:33;98932.31;;;15.11;57.96
79138;BME280;68544;45.566;10.238;2023-04-25T06:26:58;98930.47;;;15.28;58.64
79138;BME280;68544;45.566;10.238;2023-04-25T06:29:24;98913.59;;;15.88;57.18
79138;BME280;68544;45.566;10.238;2023-04-25T06:31:49;98914.84;;;16.35;55.49
79138;BME280;68544;45.566;10.238;2023-04-25T06:34:15;98911.53;;;16.49;56.17
79138;BME280;68544;45.566;10.238;2023-04-25T06:36:40;98912.56;;;16.65;51.96
79138;BME280;68544;45.566;10.238;2023-04-25T06:39:06;98909.16;;;16.53;51.34
79138;BME280;68544;45.566;10.238;2023-04-25T06:41:32;98904.66;;;16.47;54.74
79138;BME280;68544;45.566;10.238;2023-04-25T06:43:57;98904.03;;;16.40;55.32
79138;BME280;68544;45.566;10.238;2023-04-25T06:46:22;98906.06;;;16.28;51.95
79138;BME280;68544;45.566;10.238;2023-04-25T06:48:48;98902.66;;;16.21;55.54
79138;BME280;68544;45.566;10.238;2023-04-25T06:51:13;98911.28;;;16.34;53.51
79138;BME280;68544;45.566;10.238;2023-04-25T06:53:39;98907.19;;;16.15;53.90
79138;BME280;68544;45.566;10.238;2023-04-25T06:56:05;98915.56;;;16.47;56.28
79138;BME280;68544;45.566;10.238;2023-04-25T06:58:30;98910.59;;;17.04;54.99
79138;BME280;68544;45.566;10.238;2023-04-25T07:00:55;98913.53;;;17.24;53.42
79138;BME280;68544;45.566;10.238;2023-04-25T07:03:21;98908.34;;;17.76;50.77
79138;BME280;68544;45.566;10.238;2023-04-25T07:05:46;98899.19;;;17.92;50.15
79138;BME280;68544;45.566;10.238;2023-04-25T07:08:11;98900.13;;;18.07;47.30
79138;BME280;68544;45.566;10.238;2023-04-25T07:10:37;98896.81;;;18.42;46.23
79138;BME280;68544;45.566;10.238;2023-04-25T07:13:02;98901.28;;;18.58;45.33
79138;BME280;68544;45.566;10.238;2023-04-25T07:15:27;98894.78;;;18.74;46.32
79138;BME280;68544;45.566;10.238;2023-04-25T07:17:53;98887.72;;;18.83;43.98
79138;BME280;68544;45.566;10.238;2023-04-25T07:20:18;98893.38;;;19.34;43.68
79138;BME280;68544;45.566;10.238;2023-04-25T07:22:43;98892.88;;;19.72;43.10
79138;BME280;68544;45.566;10.238;2023-04-25T07:25:09;98898.09;;;19.94;41.63
79138;BME280;68544;45.566;10.238;2023-04-25T07:27:34;98905.47;;;20.03;41.34
79138;BME280;68544;45.566;10.238;2023-04-25T07:30:00;98906.78;;;20.56;41.83
79138;BME280;68544;45.566;10.238;2023-04-25T07:32:26;98911.44;;;20.61;38.35
79138;BME280;68544;45.566;10.238;2023-04-25T07:34:51;98917.91;;;20.90;39.04
79138;BME280;68544;45.566;10.238;2023-04-25T07:37:17;98920.47;;;20.71;38.70
79138;BME280;68544;45.566;10.238;2023-04-25T07:39:44;98922.38;;;20.66;37.82
79138;BME280;68544;45.566;10.238;2023-04-25T07:42:11;98927.06;;;21.34;36.60
79138;BME280;68544;45.566;10.238;2023-04-25T07:44:36;98931.41;;;21.89;36.12
79138;BME280;68544;45.566;10.238;2023-04-25T07:47:07;98935.94;;;22.66;35.54
79138;BME280;68544;45.566;10.238;2023-04-25T07:49:33;98933.59;;;22.78;35.83
79138;BME280;68544;45.566;10.238;2023-04-25T07:52:00;98940.69;;;23.87;34.87
79138;BME280;68544;45.566;10.238;2023-04-25T07:54:25;98935.16;;;26.32;29.43
79138;BME280;68544;45.566;10.238;2023-04-25T07:56:51;98929.59;;;31.05;20.49
79138;BME280;68544;45.566;10.238;2023-04-25T07:59:16;98933.50;;;33.65;16.65
79138;BME280;68544;45.566;10.238;2023-04-25T08:01:41;98946.59;;;30.67;20.89
79138;BME280;68544;45.566;10.238;2023-04-25T08:04:06;98940.44;;;32.62;18.28
79138;BME280;68544;45.566;10.238;2023-04-25T08:06:32;98936.34;;;33.03;17.55
79138;BME280;68544;45.566;10.238;2023-04-25T08:08:57;98938.34;;;28.34;23.49
79138;BME280;68544;45.566;10.238;2023-04-25T08:11:23;98950.84;;;25.78;27.91
79138;BME280;68544;45.566;10.238;2023-04-25T08:13:48;98946.53;;;24.96;30.63
79138;BME280;68544;45.566;10.238;2023-04-25T08:16:13;98948.69;;;32.15;20.50
79138;BME280;68544;45.566;10.238;2023-04-25T08:18:38;98960.88;;;29.92;23.17
79138;BME280;68544;45.566;10.238;2023-04-25T08:21:04;98963.81;;;28.10;25.46
79138;BME280;68544;45.566;10.238;2023-04-25T08:23:29;98970.69;;;25.45;30.10
79138;BME280;68544;45.566;10.238;2023-04-25T08:25:54;98967.34;;;24.29;32.40
79138;BME280;68544;45.566;10.238;2023-04-25T08:28:20;98968.19;;;23.31;33.96
79138;BME280;68544;45.566;10.238;2023-04-25T08:30:45;98989.16;;;22.23;36.98
79138;BME280;68544;45.566;10.238;2023-04-25T08:33:10;98980.16;;;22.46;36.87
79138;BME280;68544;45.566;10.238;2023-04-25T08:35:36;98980.84;;;22.90;36.14
79138;BME280;68544;45.566;10.238;2023-04-25T08:38:01;98987.94;;;23.99;33.39
79138;BME280;68544;45.566;10.238;2023-04-25T08:40:27;98979.63;;;24.69;33.05
79138;BME280;68544;45.566;10.238;2023-04-25T08:42:58;98977.00;;;24.91;32.10
79138;BME280;68544;45.566;10.238;2023-04-25T08:45:27;98976.09;;;25.50;31.77
79138;BME280;68544;45.566;10.238;2023-04-25T08:47:53;98973.25;;;28.69;25.71
79138;BME280;68544;45.566;10.238;2023-04-25T08:50:19;98971.78;;;34.11;18.33
79138;BME280;68544;45.566;10.238;2023-04-25T08:52:47;98982.44;;;35.02;16.46
79138;BME280;68544;45.566;10.238;2023-04-25T08:55:15;98990.28;;;36.13;15.05
79138;BME280;68544;45.566;10.238;2023-04-25T08:57:42;98987.69;;;36.93;13.54
79138;BME280;68544;45.566;10.238;2023-04-25T09:00:11;98987.91;;;37.18;12.87
79138;BME280;68544;45.566;10.238;2023-04-25T09:02:38;98991.66;;;37.80;12.33
79138;BME280;68544;45.566;10.238;2023-04-25T09:05:05;98986.72;;;32.59;17.00
79138;BME280;68544;45.566;10.238;2023-04-25T09:07:31;98991.56;;;36.49;13.73
79138;BME280;68544;45.566;10.238;2023-04-25T09:09:57;98986.47;;;32.25;18.17
79138;BME280;68544;45.566;10.238;2023-04-25T09:12:24;98991.75;;;32.14;18.54
79138;BME280;68544;45.566;10.238;2023-04-25T09:15:05;98992.66;;;37.10;13.07
79138;BME280;68544;45.566;10.238;2023-04-25T09:17:31;98984.28;;;32.58;18.37
79138;BME280;68544;45.566;10.238;2023-04-25T09:20:06;98988.59;;;34.69;15.73
79138;BME280;68544;45.566;10.238;2023-04-25T09:22:32;98991.59;;;31.47;19.14
79138;BME280;68544;45.566;10.238;2023-04-25T09:25:02;98987.53;;;29.43;22.11
79138;BME280;68544;45.566;10.238;2023-04-25T09:27:28;98992.13;;;33.58;17.15
79138;BME280;68544;45.566;10.238;2023-04-25T09:29:57;98997.56;;;34.97;14.92
79138;BME280;68544;45.566;10.238;2023-04-25T09:32:24;98997.53;;;33.20;16.46
79138;BME280;68544;45.566;10.238;2023-04-25T09:34:51;98991.84;;;32.57;17.17
79138;BME280;68544;45.566;10.238;2023-04-25T09:37:18;98979.97;;;36.54;13.08
79138;BME280;68544;45.566;10.238;2023-04-25T09:39:45;98990.88;;;36.29;12.19
79138;BME280;68544;45.566;10.238;2023-04-25T09:42:15;99002.94;;;38.41;10.94
79138;BME280;68544;45.566;10.238;2023-04-25T09:44:45;98993.00;;;40.31;10.04
79138;BME280;68544;45.566;10.238;2023-04-25T09:47:15;98991.31;;;38.60;10.99
79138;BME280;68544;45.566;10.238;2023-04-25T09:49:43;99000.78;;;39.14;10.35
79138;BME280;68544;45.566;10.238;2023-04-25T09:52:10;99003.56;;;40.23;9.76
79138;BME280;68544;45.566;10.238;2023-04-25T09:54:38;99002.00;;;39.76;9.24
79138;BME280;68544;45.566;10.238;2023-04-25T09:57:10;98995.91;;;40.09;9.12
79138;BME280;68544;45.566;10.238;2023-04-25T09:59:39;98998.63;;;41.21;8.61
79138;BME280;68544;45.566;10.238;2023-04-25T10:02:06;98990.03;;;40.69;8.98
79138;BME280;68544;45.566;10.238;2023-04-25T10:04:34;98981.56;;;40.66;9.35
79138;BME280;68544;45.566;10.238;2023-04-25T10:07:01;98993.06;;;39.11;10.39
79138;BME280;68544;45.566;10.238;2023-04-25T10:09:29;98990.75;;;41.46;8.74
79138;BME280;68544;45.566;10.238;2023-04-25T10:11:59;98989.06;;;39.19;10.29
79138;BME280;68544;45.566;10.238;2023-04-25T10:14:26;98997.84;;;37.49;11.85
79138;BME280;68544;45.566;10.238;2023-04-25T10:16:52;98988.59;;;40.19;9.60
79138;BME280;68544;45.566;10.238;2023-04-25T10:19:19;98991.50;;;39.41;9.24
79138;BME280;68544;45.566;10.238;2023-04-25T10:21:52;98995.47;;;39.09;9.77
79138;BME280;68544;45.566;10.238;2023-04-25T10:24:18;98980.16;;;40.05;9.93
79138;BME280;68544;45.566;10.238;2023-04-25T10:26:44;98989.81;;;38.95;9.84
79138;BME280;68544;45.566;10.238;2023-04-25T10:29:10;98986.94;;;38.77;10.82
79138;BME280;68544;45.566;10.238;2023-04-25T10:31:45;98995.91;;;34.54;15.11
79138;BME280;68544;45.566;10.238;2023-04-25T10:34:11;98995.28;;;31.87;17.10
79138;BME280;68544;45.566;10.238;2023-04-25T10:36:36;98982.31;;;36.48;12.61
79138;BME280;68544;45.566;10.238;2023-04-25T10:39:05;98993.06;;;37.53;11.87
79138;BME280;68544;45.566;10.238;2023-04-25T10:41:53;98985.66;;;36.57;12.93
79138;BME280;68544;45.566;10.238;2023-04-25T10:44:18;98998.78;;;34.39;14.23
79138;BME280;68544;45.566;10.238;2023-04-25T10:46:44;98991.22;;;32.36;16.31
79138;BME280;68544;45.566;10.238;2023-04-25T10:49:10;99002.09;;;36.25;12.95
79138;BME280;68544;45.566;10.238;2023-04-25T10:51:44;98991.19;;;33.85;15.14
79138;BME280;68544;45.566;10.238;2023-04-25T10:54:11;98999.41;;;35.54;13.75
79138;BME280;68544;45.566;10.238;2023-04-25T10:56:37;98993.84;;;35.84;14.36
79138;BME280;68544;45.566;10.238;2023-04-25T10:59:06;98986.59;;;33.77;15.53
79138;BME280;68544;45.566;10.238;2023-04-25T11:01:45;98991.53;;;30.33;19.41
79138;BME280;68544;45.566;10.238;2023-04-25T11:04:31;98985.88;;;29.50;21.19
79138;BME280;68544;45.566;10.238;2023-04-25T11:07:07;98982.91;;;28.63;22.42
79138;BME280;68544;45.566;10.238;2023-04-25T11:09:38;98991.09;;;28.34;22.44
79138;BME280;68544;45.566;10.238;2023-04-25T11:12:07;98969.69;;;28.34;22.63
79138;BME280;68544;45.566;10.238;2023-04-25T11:14:33;98980.78;;;27.91;22.75
79138;BME280;68544;45.566;10.238;2023-04-25T11:16:59;98982.94;;;28.29;22.54
79138;BME280;68544;45.566;10.238;2023-04-25T11:19:25;98973.38;;;27.05;24.37
79138;BME280;68544;45.566;10.238;2023-04-25T11:21:55;98974.72;;;27.55;24.69
79138;BME280;68544;45.566;10.238;2023-04-25T11:24:27;98967.63;;;26.93;24.11
79138;BME280;68544;45.566;10.238;2023-04-25T11:26:53;98968.69;;;27.14;23.84
79138;BME280;68544;45.566;10.238;2023-04-25T11:29:22;98967.31;;;27.03;24.31
79138;BME280;68544;45.566;10.238;2023-04-25T11:31:47;98968.78;;;26.70;23.93
79138;BME280;68544;45.566;10.238;2023-04-25T11:34:17;98957.28;;;27.24;23.27
79138;BME280;68544;45.566;10.238;2023-04-25T11:36:44;98962.44;;;27.00;23.91
79138;BME280;68544;45.566;10.238;2023-04-25T11:39:10;98964.78;;;26.53;25.05
79138;BME280;68544;45.566;10.238;2023-04-25T11:41:37;98959.09;;;25.92;24.09
79138;BME280;68544;45.566;10.238;2023-04-25T11:44:03;98951.59;;;26.28;24.62
79138;BME280;68544;45.566;10.238;2023-04-25T11:46:28;98947.13;;;26.72;24.46
79138;BME280;68544;45.566;10.238;2023-04-25T11:48:55;98959.28;;;25.96;25.10
79138;BME280;68544;45.566;10.238;2023-04-25T11:51:21;98952.16;;;25.04;27.33
79138;BME280;68544;45.566;10.238;2023-04-25T11:53:46;98960.13;;;24.92;27.95
79138;BME280;68544;45.566;10.238;2023-04-25T11:56:12;98958.78;;;25.31;26.73
79138;BME280;68544;45.566;10.238;2023-04-25T11:58:56;98954.41;;;24.57;28.85
79138;BME280;68544;45.566;10.238;2023-04-25T12:01:30;98956.97;;;24.85;29.01
79138;BME280;68544;45.566;10.238;2023-04-25T12:03:56;98958.00;;;24.57;27.65
79138;BME280;68544;45.566;10.238;2023-04-25T12:06:29;98962.16;;;24.73;28.53
79138;BME280;68544;45.566;10.238;2023-04-25T12:09:02;98970.69;;;23.51;28.89
79138;BME280;68544;45.566;10.238;2023-04-25T12:11:32;98960.72;;;22.90;31.08
79138;BME280;68544;45.566;10.238;2023-04-25T12:14:04;98958.03;;;23.08;30.54
79138;BME280;68544;45.566;10.238;2023-04-25T12:16:42;98958.03;;;22.61;31.44
79138;BME280;68544;45.566;10.238;2023-04-25T12:19:08;98953.09;;;21.95;33.18
79138;BME280;68544;45.566;10.238;2023-04-25T12:21:34;98959.03;;;22.08;32.91
79138;BME280;68544;45.566;10.238;2023-04-25T12:24:13;98947.41;;;22.16;32.69
79138;BME280;68544;45.566;10.238;2023-04-25T12:26:52;98944.09;;;21.75;33.52
79138;BME280;68544;45.566;10.238;2023-04-25T12:29:23;98975.75;;;22.11;32.89
79138;BME280;68544;45.566;10.238;2023-04-25T12:31:49;98975.63;;;21.92;33.17
79138;BME280;68544;45.566;10.238;2023-04-25T12:34:15;98977.00;;;21.95;32.53
79138;BME280;68544;45.566;10.238;2023-04-25T12:36:40;98982.00;;;21.29;34.32
79138;BME280;68544;45.566;10.238;2023-04-25T12:39:06;98982.28;;;21.33;34.61
79138;BME280;68544;45.566;10.238;2023-04-25T12:41:31;98988.94;;;21.16;36.23
79138;BME280;68544;45.566;10.238;2023-04-25T12:43:57;98995.50;;;21.20;36.31
79138;BME280;68544;45.566;10.238;2023-04-25T12:46:22;99000.78;;;20.92;37.35